sensor_id;sensor_type;location;lat;lon;timestamp;temperature;humidity
22747;DHT22;11540;52.130;5.648;2022-09-09T00:01:47;15.10;99.90
22747;DHT22;11540;52.130;5.648;2022-09-09T00:04:19;15.10;99.90
22747;DHT22;11540;52.130;5.648;2022-09-09T00:06:55;15.10;99.90
22747;DHT22;11540;52.130;5.648;2022-09-09T00:09:23;15.10;99.90
22747;DHT22;11540;52.130;5.648;2022-09-09T00:11:51;15.20;99.90
22747;DHT22;11540;52.130;5.648;2022-09-09T00:14:20;15.10;99.90
22747;DHT22;11540;52.130;5.648;2022-09-09T00:16:50;15.10;99.90
22747;DHT22;11540;52.130;5.648;2022-09-09T00:19:22;15.10;99.90
22747;DHT22;11540;52.130;5.648;2022-09-09T00:27:51;15.10;99.90
22747;DHT22;11540;52.130;5.648;2022-09-09T00:30:17;15.10;99.90
22747;DHT22;11540;52.130;5.648;2022-09-09T00:32:45;15.10;99.90
22747;DHT22;11540;52.130;5.648;2022-09-09T00:37:44;15.10;99.90
22747;DHT22;11540;52.130;5.648;2022-09-09T00:40:24;15.10;99.90
22747;DHT22;11540;52.130;5.648;2022-09-09T00:43:18;15.10;99.90
22747;DHT22;11540;52.130;5.648;2022-09-09T00:45:51;15.00;99.90
22747;DHT22;11540;52.130;5.648;2022-09-09T00:48:19;15.00;99.90
22747;DHT22;11540;52.130;5.648;2022-09-09T00:50:52;14.90;99.90
22747;DHT22;11540;52.130;5.648;2022-09-09T00:58:30;14.80;99.90
22747;DHT22;11540;52.130;5.648;2022-09-09T01:00:57;14.80;99.90
22747;DHT22;11540;52.130;5.648;2022-09-09T01:03:28;14.70;99.90
22747;DHT22;11540;52.130;5.648;2022-09-09T01:06:00;14.70;99.90
22747;DHT22;11540;52.130;5.648;2022-09-09T01:13:47;14.60;99.90
22747;DHT22;11540;52.130;5.648;2022-09-09T01:16:14;14.50;99.90
22747;DHT22;11540;52.130;5.648;2022-09-09T01:18:46;14.50;99.90
22747;DHT22;11540;52.130;5.648;2022-09-09T01:21:24;14.50;99.90
22747;DHT22;11540;52.130;5.648;2022-09-09T01:26:37;14.40;99.90
22747;DHT22;11540;52.130;5.648;2022-09-09T01:29:04;14.40;99.90
22747;DHT22;11540;52.130;5.648;2022-09-09T01:31:33;14.50;99.90
22747;DHT22;11540;52.130;5.648;2022-09-09T01:34:00;14.50;99.90
22747;DHT22;11540;52.130;5.648;2022-09-09T01:36:30;14.50;99.90
22747;DHT22;11540;52.130;5.648;2022-09-09T01:38:59;14.50;99.90
22747;DHT22;11540;52.130;5.648;2022-09-09T01:41:24;14.50;99.90
22747;DHT22;11540;52.130;5.648;2022-09-09T01:43:50;14.40;99.90
22747;DHT22;11540;52.130;5.648;2022-09-09T01:46:16;14.40;99.90
22747;DHT22;11540;52.130;5.648;2022-09-09T01:48:42;14.40;99.90
22747;DHT22;11540;52.130;5.648;2022-09-09T01:51:08;14.40;99.90
22747;DHT22;11540;52.130;5.648;2022-09-09T01:53:35;14.30;99.90
22747;DHT22;11540;52.130;5.648;2022-09-09T02:03:47;14.20;99.90
22747;DHT22;11540;52.130;5.648;2022-09-09T02:08:40;14.10;99.90
22747;DHT22;11540;52.130;5.648;2022-09-09T02:11:17;14.10;99.90
22747;DHT22;11540;52.130;5.648;2022-09-09T02:13:44;14.10;99.90
22747;DHT22;11540;52.130;5.648;2022-09-09T02:16:12;14.10;99.90
22747;DHT22;11540;52.130;5.648;2022-09-09T02:18:45;14.00;99.90
22747;DHT22;11540;52.130;5.648;2022-09-09T02:21:13;14.00;99.90
22747;DHT22;11540;52.130;5.648;2022-09-09T02:23:40;14.00;99.90
22747;DHT22;11540;52.130;5.648;2022-09-09T02:26:07;13.90;99.90
22747;DHT22;11540;52.130;5.648;2022-09-09T02:28:33;13.90;99.90
22747;DHT22;11540;52.130;5.648;2022-09-09T02:30:59;13.90;99.90
22747;DHT22;11540;52.130;5.648;2022-09-09T02:33:27;13.90;99.90
22747;DHT22;11540;52.130;5.648;2022-09-09T02:35:53;13.90;99.90
22747;DHT22;11540;52.130;5.648;2022-09-09T02:38:21;13.90;99.90
22747;DHT22;11540;52.130;5.648;2022-09-09T02:40:50;13.90;99.90
22747;DHT22;11540;52.130;5.648;2022-09-09T02:43:15;13.90;99.90
22747;DHT22;11540;52.130;5.648;2022-09-09T02:45:53;13.80;99.90
22747;DHT22;11540;52.130;5.648;2022-09-09T02:48:26;13.80;99.90
22747;DHT22;11540;52.130;5.648;2022-09-09T02:53:52;13.80;99.90
22747;DHT22;11540;52.130;5.648;2022-09-09T02:56:21;13.70;99.90
22747;DHT22;11540;52.130;5.648;2022-09-09T02:58:48;13.70;99.90
22747;DHT22;11540;52.130;5.648;2022-09-09T03:01:14;13.70;99.90
22747;DHT22;11540;52.130;5.648;2022-09-09T03:03:40;13.70;99.90
22747;DHT22;11540;52.130;5.648;2022-09-09T03:06:06;13.70;99.90
22747;DHT22;11540;52.130;5.648;2022-09-09T03:08:32;13.70;99.90
22747;DHT22;11540;52.130;5.648;2022-09-09T03:10:58;13.70;99.90
22747;DHT22;11540;52.130;5.648;2022-09-09T03:13:23;13.70;99.90
22747;DHT22;11540;52.130;5.648;2022-09-09T03:15:50;13.70;99.90
22747;DHT22;11540;52.130;5.648;2022-09-09T03:18:16;13.70;99.90
22747;DHT22;11540;52.130;5.648;2022-09-09T03:20:42;13.70;99.90
22747;DHT22;11540;52.130;5.648;2022-09-09T03:23:08;13.70;99.90
22747;DHT22;11540;52.130;5.648;2022-09-09T03:25:33;13.60;99.90
22747;DHT22;11540;52.130;5.648;2022-09-09T03:27:59;13.70;99.90
22747;DHT22;11540;52.130;5.648;2022-09-09T03:30:25;13.70;99.90
22747;DHT22;11540;52.130;5.648;2022-09-09T03:32:51;13.70;99.90
22747;DHT22;11540;52.130;5.648;2022-09-09T03:35:16;13.60;99.90
22747;DHT22;11540;52.130;5.648;2022-09-09T03:37:42;13.70;99.90
22747;DHT22;11540;52.130;5.648;2022-09-09T03:40:08;13.70;99.90
22747;DHT22;11540;52.130;5.648;2022-09-09T03:42:35;13.60;99.90
22747;DHT22;11540;52.130;5.648;2022-09-09T03:45:02;13.70;99.90
22747;DHT22;11540;52.130;5.648;2022-09-09T03:47:28;13.70;99.90
22747;DHT22;11540;52.130;5.648;2022-09-09T03:49:53;13.70;99.90
22747;DHT22;11540;52.130;5.648;2022-09-09T03:52:19;13.60;99.90
22747;DHT22;11540;52.130;5.648;2022-09-09T03:54:46;13.70;99.90
22747;DHT22;11540;52.130;5.648;2022-09-09T03:57:13;13.70;99.90
22747;DHT22;11540;52.130;5.648;2022-09-09T03:59:42;13.70;99.90
22747;DHT22;11540;52.130;5.648;2022-09-09T04:02:07;13.80;99.90
22747;DHT22;11540;52.130;5.648;2022-09-09T04:04:33;13.80;99.90
22747;DHT22;11540;52.130;5.648;2022-09-09T04:06:58;13.80;99.90
22747;DHT22;11540;52.130;5.648;2022-09-09T04:09:23;13.90;99.90
22747;DHT22;11540;52.130;5.648;2022-09-09T04:11:49;13.90;99.90
22747;DHT22;11540;52.130;5.648;2022-09-09T04:14:14;13.90;99.90
22747;DHT22;11540;52.130;5.648;2022-09-09T04:16:40;14.00;99.90
22747;DHT22;11540;52.130;5.648;2022-09-09T04:19:08;14.00;99.90
22747;DHT22;11540;52.130;5.648;2022-09-09T04:21:33;13.90;99.90
22747;DHT22;11540;52.130;5.648;2022-09-09T04:23:59;14.00;99.90
22747;DHT22;11540;52.130;5.648;2022-09-09T04:26:25;13.90;99.90
22747;DHT22;11540;52.130;5.648;2022-09-09T04:28:50;13.90;99.90
22747;DHT22;11540;52.130;5.648;2022-09-09T04:31:17;13.90;99.90
22747;DHT22;11540;52.130;5.648;2022-09-09T04:33:43;14.00;99.90
22747;DHT22;11540;52.130;5.648;2022-09-09T04:36:09;13.90;99.90
22747;DHT22;11540;52.130;5.648;2022-09-09T04:38:35;14.00;99.90
22747;DHT22;11540;52.130;5.648;2022-09-09T04:41:00;14.00;99.90
22747;DHT22;11540;52.130;5.648;2022-09-09T04:43:26;14.00;99.90
22747;DHT22;11540;52.130;5.648;2022-09-09T04:45:52;14.00;99.90
22747;DHT22;11540;52.130;5.648;2022-09-09T04:48:18;14.00;99.90
22747;DHT22;11540;52.130;5.648;2022-09-09T04:50:44;14.00;99.90
22747;DHT22;11540;52.130;5.648;2022-09-09T04:53:09;14.00;99.90
22747;DHT22;11540;52.130;5.648;2022-09-09T04:55:35;14.00;99.90
22747;DHT22;11540;52.130;5.648;2022-09-09T04:58:04;14.00;99.90
22747;DHT22;11540;52.130;5.648;2022-09-09T05:00:30;14.00;99.90
22747;DHT22;11540;52.130;5.648;2022-09-09T05:02:55;14.10;99.90
22747;DHT22;11540;52.130;5.648;2022-09-09T05:05:21;14.00;99.90
22747;DHT22;11540;52.130;5.648;2022-09-09T05:07:47;14.00;99.90
22747;DHT22;11540;52.130;5.648;2022-09-09T05:10:13;14.10;99.90
22747;DHT22;11540;52.130;5.648;2022-09-09T05:12:40;14.00;99.90
22747;DHT22;11540;52.130;5.648;2022-09-09T05:15:05;14.00;99.90
22747;DHT22;11540;52.130;5.648;2022-09-09T05:17:31;14.00;99.90
22747;DHT22;11540;52.130;5.648;2022-09-09T05:19:56;13.90;99.90
22747;DHT22;11540;52.130;5.648;2022-09-09T05:22:22;13.90;99.90
22747;DHT22;11540;52.130;5.648;2022-09-09T05:24:49;13.90;99.90
22747;DHT22;11540;52.130;5.648;2022-09-09T05:27:16;14.00;99.90
22747;DHT22;11540;52.130;5.648;2022-09-09T05:29:43;14.00;99.90
22747;DHT22;11540;52.130;5.648;2022-09-09T05:32:09;14.00;99.90
22747;DHT22;11540;52.130;5.648;2022-09-09T05:34:35;14.00;99.90
22747;DHT22;11540;52.130;5.648;2022-09-09T05:37:00;14.10;99.90
22747;DHT22;11540;52.130;5.648;2022-09-09T05:39:26;14.10;99.90
22747;DHT22;11540;52.130;5.648;2022-09-09T05:41:51;14.10;99.90
22747;DHT22;11540;52.130;5.648;2022-09-09T05:44:17;14.10;99.90
22747;DHT22;11540;52.130;5.648;2022-09-09T05:46:42;14.10;99.90
22747;DHT22;11540;52.130;5.648;2022-09-09T05:49:08;14.10;99.90
22747;DHT22;11540;52.130;5.648;2022-09-09T05:51:33;14.10;99.90
22747;DHT22;11540;52.130;5.648;2022-09-09T05:53:59;14.20;99.90
22747;DHT22;11540;52.130;5.648;2022-09-09T05:56:26;14.20;99.90
22747;DHT22;11540;52.130;5.648;2022-09-09T05:58:51;14.20;99.90
22747;DHT22;11540;52.130;5.648;2022-09-09T06:01:19;14.30;99.90
22747;DHT22;11540;52.130;5.648;2022-09-09T06:03:45;14.30;99.90
22747;DHT22;11540;52.130;5.648;2022-09-09T06:06:14;14.40;99.90
22747;DHT22;11540;52.130;5.648;2022-09-09T06:08:41;14.40;99.90
22747;DHT22;11540;52.130;5.648;2022-09-09T06:11:10;14.50;99.90
22747;DHT22;11540;52.130;5.648;2022-09-09T06:13:36;14.50;99.90
22747;DHT22;11540;52.130;5.648;2022-09-09T06:16:04;14.60;99.90
22747;DHT22;11540;52.130;5.648;2022-09-09T06:18:30;14.60;99.90
22747;DHT22;11540;52.130;5.648;2022-09-09T06:20:56;14.60;99.90
22747;DHT22;11540;52.130;5.648;2022-09-09T06:23:22;14.70;99.90
22747;DHT22;11540;52.130;5.648;2022-09-09T06:25:47;14.70;99.90
22747;DHT22;11540;52.130;5.648;2022-09-09T06:28:14;14.70;99.90
22747;DHT22;11540;52.130;5.648;2022-09-09T06:30:40;14.80;99.90
22747;DHT22;11540;52.130;5.648;2022-09-09T06:33:06;14.90;99.90
22747;DHT22;11540;52.130;5.648;2022-09-09T06:35:32;15.00;99.90
22747;DHT22;11540;52.130;5.648;2022-09-09T06:37:57;15.00;99.90
22747;DHT22;11540;52.130;5.648;2022-09-09T06:40:24;15.10;99.90
22747;DHT22;11540;52.130;5.648;2022-09-09T06:42:49;15.10;99.90
22747;DHT22;11540;52.130;5.648;2022-09-09T06:45:15;15.10;99.90
22747;DHT22;11540;52.130;5.648;2022-09-09T06:47:40;15.20;99.90
22747;DHT22;11540;52.130;5.648;2022-09-09T06:50:06;15.20;99.90
22747;DHT22;11540;52.130;5.648;2022-09-09T06:52:32;15.20;99.90
22747;DHT22;11540;52.130;5.648;2022-09-09T06:54:58;15.30;99.90
22747;DHT22;11540;52.130;5.648;2022-09-09T06:57:23;15.30;99.90
22747;DHT22;11540;52.130;5.648;2022-09-09T06:59:49;15.40;99.90
22747;DHT22;11540;52.130;5.648;2022-09-09T07:02:14;15.50;99.90
22747;DHT22;11540;52.130;5.648;2022-09-09T07:04:40;15.50;99.90
22747;DHT22;11540;52.130;5.648;2022-09-09T07:07:05;15.60;99.90
22747;DHT22;11540;52.130;5.648;2022-09-09T07:09:31;15.70;99.90
22747;DHT22;11540;52.130;5.648;2022-09-09T07:11:57;15.80;99.90
22747;DHT22;11540;52.130;5.648;2022-09-09T07:14:24;15.90;99.90
22747;DHT22;11540;52.130;5.648;2022-09-09T07:16:50;16.10;99.90
22747;DHT22;11540;52.130;5.648;2022-09-09T07:19:16;16.20;99.90
22747;DHT22;11540;52.130;5.648;2022-09-09T07:21:41;16.30;99.90
22747;DHT22;11540;52.130;5.648;2022-09-09T07:24:07;16.30;99.90
22747;DHT22;11540;52.130;5.648;2022-09-09T07:26:35;16.50;99.90
22747;DHT22;11540;52.130;5.648;2022-09-09T07:29:01;16.60;99.90
22747;DHT22;11540;52.130;5.648;2022-09-09T07:31:28;16.80;99.90
22747;DHT22;11540;52.130;5.648;2022-09-09T07:33:55;16.90;99.90
22747;DHT22;11540;52.130;5.648;2022-09-09T07:36:22;17.00;99.90
22747;DHT22;11540;52.130;5.648;2022-09-09T07:38:52;17.00;99.90
22747;DHT22;11540;52.130;5.648;2022-09-09T07:41:20;16.90;99.90
22747;DHT22;11540;52.130;5.648;2022-09-09T07:43:46;17.00;99.90
22747;DHT22;11540;52.130;5.648;2022-09-09T07:46:13;17.10;99.90
22747;DHT22;11540;52.130;5.648;2022-09-09T07:48:47;17.10;99.90
22747;DHT22;11540;52.130;5.648;2022-09-09T07:51:17;17.10;99.90
22747;DHT22;11540;52.130;5.648;2022-09-09T07:53:48;17.00;99.90
22747;DHT22;11540;52.130;5.648;2022-09-09T07:56:14;17.00;99.90
22747;DHT22;11540;52.130;5.648;2022-09-09T07:58:42;17.00;99.90
22747;DHT22;11540;52.130;5.648;2022-09-09T08:01:10;17.10;99.90
22747;DHT22;11540;52.130;5.648;2022-09-09T08:03:36;17.20;99.90
22747;DHT22;11540;52.130;5.648;2022-09-09T08:06:03;17.30;99.90
22747;DHT22;11540;52.130;5.648;2022-09-09T08:08:29;17.50;99.90
22747;DHT22;11540;52.130;5.648;2022-09-09T08:11:01;17.60;99.90
22747;DHT22;11540;52.130;5.648;2022-09-09T08:13:26;17.50;99.90
22747;DHT22;11540;52.130;5.648;2022-09-09T08:15:52;17.40;99.90
22747;DHT22;11540;52.130;5.648;2022-09-09T08:18:17;17.30;99.90
22747;DHT22;11540;52.130;5.648;2022-09-09T08:20:43;17.20;99.90
22747;DHT22;11540;52.130;5.648;2022-09-09T08:23:08;17.10;99.90
22747;DHT22;11540;52.130;5.648;2022-09-09T08:25:34;17.00;99.90
22747;DHT22;11540;52.130;5.648;2022-09-09T08:27:59;16.90;99.90
22747;DHT22;11540;52.130;5.648;2022-09-09T08:30:25;16.90;99.90
22747;DHT22;11540;52.130;5.648;2022-09-09T08:32:50;17.00;99.90
22747;DHT22;11540;52.130;5.648;2022-09-09T08:35:16;17.00;99.90
22747;DHT22;11540;52.130;5.648;2022-09-09T08:37:42;17.00;99.90
22747;DHT22;11540;52.130;5.648;2022-09-09T08:40:09;17.10;99.90
22747;DHT22;11540;52.130;5.648;2022-09-09T08:42:40;17.20;99.90
22747;DHT22;11540;52.130;5.648;2022-09-09T08:45:12;17.30;99.90
22747;DHT22;11540;52.130;5.648;2022-09-09T08:55:47;17.60;99.90
22747;DHT22;11540;52.130;5.648;2022-09-09T08:58:23;17.60;99.90
22747;DHT22;11540;52.130;5.648;2022-09-09T09:11:39;17.60;99.90
22747;DHT22;11540;52.130;5.648;2022-09-09T09:14:11;17.60;99.90
22747;DHT22;11540;52.130;5.648;2022-09-09T09:16:46;17.60;99.90
22747;DHT22;11540;52.130;5.648;2022-09-09T09:19:14;17.60;99.90
22747;DHT22;11540;52.130;5.648;2022-09-09T09:22:24;17.70;99.90
22747;DHT22;11540;52.130;5.648;2022-09-09T09:24:40;17.60;99.90
22747;DHT22;11540;52.130;5.648;2022-09-09T09:27:13;17.60;99.90
22747;DHT22;11540;52.130;5.648;2022-09-09T09:29:39;17.70;99.90
22747;DHT22;11540;52.130;5.648;2022-09-09T09:32:05;17.80;99.90
22747;DHT22;11540;52.130;5.648;2022-09-09T09:34:34;17.70;99.90
22747;DHT22;11540;52.130;5.648;2022-09-09T09:36:59;17.70;99.90
22747;DHT22;11540;52.130;5.648;2022-09-09T09:39:29;17.60;99.90
22747;DHT22;11540;52.130;5.648;2022-09-09T09:41:55;17.60;99.90
22747;DHT22;11540;52.130;5.648;2022-09-09T09:46:48;17.70;99.90
22747;DHT22;11540;52.130;5.648;2022-09-09T09:49:13;17.80;99.90
22747;DHT22;11540;52.130;5.648;2022-09-09T09:51:39;17.80;99.90
22747;DHT22;11540;52.130;5.648;2022-09-09T09:54:18;17.90;99.90
22747;DHT22;11540;52.130;5.648;2022-09-09T09:56:48;17.90;99.90
22747;DHT22;11540;52.130;5.648;2022-09-09T09:59:20;18.00;99.90
22747;DHT22;11540;52.130;5.648;2022-09-09T10:01:45;18.00;99.90
22747;DHT22;11540;52.130;5.648;2022-09-09T10:06:40;18.00;99.90
22747;DHT22;11540;52.130;5.648;2022-09-09T10:09:22;18.00;99.90
22747;DHT22;11540;52.130;5.648;2022-09-09T10:14:20;18.00;99.90
22747;DHT22;11540;52.130;5.648;2022-09-09T10:16:56;18.10;99.90
22747;DHT22;11540;52.130;5.648;2022-09-09T10:19:35;18.10;99.90
22747;DHT22;11540;52.130;5.648;2022-09-09T10:40:05;17.60;99.90
22747;DHT22;11540;52.130;5.648;2022-09-09T10:42:34;17.70;99.90
22747;DHT22;11540;52.130;5.648;2022-09-09T10:45:15;17.70;99.90
22747;DHT22;11540;52.130;5.648;2022-09-09T10:55:40;17.90;99.90
22747;DHT22;11540;52.130;5.648;2022-09-09T10:58:21;17.70;99.90
22747;DHT22;11540;52.130;5.648;2022-09-09T11:00:47;17.40;99.90
22747;DHT22;11540;52.130;5.648;2022-09-09T11:03:20;17.30;99.90
22747;DHT22;11540;52.130;5.648;2022-09-09T11:05:48;17.20;99.90
22747;DHT22;11540;52.130;5.648;2022-09-09T11:08:19;17.20;99.90
22747;DHT22;11540;52.130;5.648;2022-09-09T11:10:49;17.30;99.90
22747;DHT22;11540;52.130;5.648;2022-09-09T11:16:05;17.60;99.90
22747;DHT22;11540;52.130;5.648;2022-09-09T11:18:38;17.90;99.90
22747;DHT22;11540;52.130;5.648;2022-09-09T11:21:05;18.20;99.90
22747;DHT22;11540;52.130;5.648;2022-09-09T11:23:41;18.60;99.90
22747;DHT22;11540;52.130;5.648;2022-09-09T11:26:10;19.20;99.90
22747;DHT22;11540;52.130;5.648;2022-09-09T11:31:45;20.40;99.90
22747;DHT22;11540;52.130;5.648;2022-09-09T11:36:41;20.60;99.90
22747;DHT22;11540;52.130;5.648;2022-09-09T11:41:52;19.80;99.90
22747;DHT22;11540;52.130;5.648;2022-09-09T11:44:19;19.50;99.90
22747;DHT22;11540;52.130;5.648;2022-09-09T11:46:49;19.50;99.90
22747;DHT22;11540;52.130;5.648;2022-09-09T11:52:10;20.50;99.90
22747;DHT22;11540;52.130;5.648;2022-09-09T11:54:44;21.20;99.90
22747;DHT22;11540;52.130;5.648;2022-09-09T11:57:17;21.40;99.90
22747;DHT22;11540;52.130;5.648;2022-09-09T11:59:51;21.30;99.90
22747;DHT22;11540;52.130;5.648;2022-09-09T12:04:50;20.90;99.90
22747;DHT22;11540;52.130;5.648;2022-09-09T12:07:28;20.70;99.90
22747;DHT22;11540;52.130;5.648;2022-09-09T12:09:56;20.40;99.90
22747;DHT22;11540;52.130;5.648;2022-09-09T12:17:20;19.90;99.90
22747;DHT22;11540;52.130;5.648;2022-09-09T12:19:47;19.80;99.90
22747;DHT22;11540;52.130;5.648;2022-09-09T12:22:17;19.80;99.90
22747;DHT22;11540;52.130;5.648;2022-09-09T12:24:50;19.70;99.90
22747;DHT22;11540;52.130;5.648;2022-09-09T12:30:11;19.50;99.90
22747;DHT22;11540;52.130;5.648;2022-09-09T12:32:39;19.50;99.90
22747;DHT22;11540;52.130;5.648;2022-09-09T12:35:11;19.40;99.90
22747;DHT22;11540;52.130;5.648;2022-09-09T12:37:57;19.20;99.90
22747;DHT22;11540;52.130;5.648;2022-09-09T12:40:25;19.10;99.90
22747;DHT22;11540;52.130;5.648;2022-09-09T12:42:51;18.90;99.90
22747;DHT22;11540;52.130;5.648;2022-09-09T12:47:44;18.50;99.90
22747;DHT22;11540;52.130;5.648;2022-09-09T12:50:21;18.50;99.90
22747;DHT22;11540;52.130;5.648;2022-09-09T12:52:47;18.50;99.90
22747;DHT22;11540;52.130;5.648;2022-09-09T12:55:19;18.80;99.90
22747;DHT22;11540;52.130;5.648;2022-09-09T12:57:47;19.10;99.90
22747;DHT22;11540;52.130;5.648;2022-09-09T13:02:51;19.00;99.90
22747;DHT22;11540;52.130;5.648;2022-09-09T13:05:38;18.80;99.90
22747;DHT22;11540;52.130;5.648;2022-09-09T13:08:03;18.80;99.90
22747;DHT22;11540;52.130;5.648;2022-09-09T13:10:30;18.70;99.90
22747;DHT22;11540;52.130;5.648;2022-09-09T13:12:56;18.70;99.90
22747;DHT22;11540;52.130;5.648;2022-09-09T13:15:23;18.60;99.90
22747;DHT22;11540;52.130;5.648;2022-09-09T13:17:52;18.60;99.90
22747;DHT22;11540;52.130;5.648;2022-09-09T13:20:19;18.50;99.90
22747;DHT22;11540;52.130;5.648;2022-09-09T13:22:46;18.50;99.90
22747;DHT22;11540;52.130;5.648;2022-09-09T13:27:38;18.50;99.90
22747;DHT22;11540;52.130;5.648;2022-09-09T13:32:46;18.50;99.90
22747;DHT22;11540;52.130;5.648;2022-09-09T13:35:22;18.60;99.90
22747;DHT22;11540;52.130;5.648;2022-09-09T13:37:48;18.60;99.90
22747;DHT22;11540;52.130;5.648;2022-09-09T13:40:17;18.60;99.90
22747;DHT22;11540;52.130;5.648;2022-09-09T13:42:44;18.70;99.90
22747;DHT22;11540;52.130;5.648;2022-09-09T13:45:19;18.70;99.90
22747;DHT22;11540;52.130;5.648;2022-09-09T13:47:48;18.80;99.90
22747;DHT22;11540;52.130;5.648;2022-09-09T13:50:27;18.90;99.90
22747;DHT22;11540;52.130;5.648;2022-09-09T13:52:54;19.00;99.90
22747;DHT22;11540;52.130;5.648;2022-09-09T13:55:20;19.10;99.90
22747;DHT22;11540;52.130;5.648;2022-09-09T13:58:00;19.20;99.90
22747;DHT22;11540;52.130;5.648;2022-09-09T14:00:26;19.20;99.90
22747;DHT22;11540;52.130;5.648;2022-09-09T14:02:53;19.30;99.90
22747;DHT22;11540;52.130;5.648;2022-09-09T14:05:20;19.40;99.90
22747;DHT22;11540;52.130;5.648;2022-09-09T14:07:47;19.40;99.90
22747;DHT22;11540;52.130;5.648;2022-09-09T14:10:13;19.40;99.90
22747;DHT22;11540;52.130;5.648;2022-09-09T14:12:38;19.40;99.90
22747;DHT22;11540;52.130;5.648;2022-09-09T14:15:04;19.40;99.90
22747;DHT22;11540;52.130;5.648;2022-09-09T14:17:30;19.40;99.90
22747;DHT22;11540;52.130;5.648;2022-09-09T14:19:56;19.30;99.90
22747;DHT22;11540;52.130;5.648;2022-09-09T14:22:22;19.40;99.90
22747;DHT22;11540;52.130;5.648;2022-09-09T14:24:48;19.40;99.90
22747;DHT22;11540;52.130;5.648;2022-09-09T14:27:14;19.40;99.90
22747;DHT22;11540;52.130;5.648;2022-09-09T14:29:39;19.50;99.90
22747;DHT22;11540;52.130;5.648;2022-09-09T14:32:05;19.60;99.90
22747;DHT22;11540;52.130;5.648;2022-09-09T14:34:31;19.70;99.90
22747;DHT22;11540;52.130;5.648;2022-09-09T14:36:57;19.70;99.90
22747;DHT22;11540;52.130;5.648;2022-09-09T14:39:23;19.70;99.90
22747;DHT22;11540;52.130;5.648;2022-09-09T14:41:48;19.70;99.90
22747;DHT22;11540;52.130;5.648;2022-09-09T14:44:14;19.80;99.90
22747;DHT22;11540;52.130;5.648;2022-09-09T14:46:40;19.90;99.90
22747;DHT22;11540;52.130;5.648;2022-09-09T14:49:07;19.90;99.90
22747;DHT22;11540;52.130;5.648;2022-09-09T14:51:33;19.90;99.90
22747;DHT22;11540;52.130;5.648;2022-09-09T14:53:59;19.90;99.90
22747;DHT22;11540;52.130;5.648;2022-09-09T14:56:26;19.90;99.90
22747;DHT22;11540;52.130;5.648;2022-09-09T14:58:55;20.10;99.90
22747;DHT22;11540;52.130;5.648;2022-09-09T15:01:21;20.40;99.90
22747;DHT22;11540;52.130;5.648;2022-09-09T15:03:54;20.50;99.90
22747;DHT22;11540;52.130;5.648;2022-09-09T15:06:20;20.50;99.90
22747;DHT22;11540;52.130;5.648;2022-09-09T15:08:46;20.30;99.90
22747;DHT22;11540;52.130;5.648;2022-09-09T15:11:13;20.00;99.90
22747;DHT22;11540;52.130;5.648;2022-09-09T15:13:39;19.80;99.90
22747;DHT22;11540;52.130;5.648;2022-09-09T15:16:06;19.70;99.90
22747;DHT22;11540;52.130;5.648;2022-09-09T15:18:32;19.60;99.90
22747;DHT22;11540;52.130;5.648;2022-09-09T15:20:58;19.50;99.90
22747;DHT22;11540;52.130;5.648;2022-09-09T15:23:25;19.60;99.90
22747;DHT22;11540;52.130;5.648;2022-09-09T15:25:51;19.60;99.90
22747;DHT22;11540;52.130;5.648;2022-09-09T15:28:17;19.60;99.90
22747;DHT22;11540;52.130;5.648;2022-09-09T15:30:42;19.40;99.90
22747;DHT22;11540;52.130;5.648;2022-09-09T15:33:10;19.40;99.90
22747;DHT22;11540;52.130;5.648;2022-09-09T15:35:35;19.50;99.90
22747;DHT22;11540;52.130;5.648;2022-09-09T15:38:02;19.60;99.90
22747;DHT22;11540;52.130;5.648;2022-09-09T15:40:27;19.60;99.90
22747;DHT22;11540;52.130;5.648;2022-09-09T15:42:53;19.70;99.90
22747;DHT22;11540;52.130;5.648;2022-09-09T15:45:18;19.70;99.90
22747;DHT22;11540;52.130;5.648;2022-09-09T15:47:44;19.70;99.90
22747;DHT22;11540;52.130;5.648;2022-09-09T15:50:10;19.90;99.90
22747;DHT22;11540;52.130;5.648;2022-09-09T15:52:35;20.10;99.90
22747;DHT22;11540;52.130;5.648;2022-09-09T15:55:01;20.20;99.90
22747;DHT22;11540;52.130;5.648;2022-09-09T15:57:26;20.30;99.90
22747;DHT22;11540;52.130;5.648;2022-09-09T15:59:52;20.10;99.90
22747;DHT22;11540;52.130;5.648;2022-09-09T16:02:17;19.90;99.90
22747;DHT22;11540;52.130;5.648;2022-09-09T16:04:43;19.70;99.90
22747;DHT22;11540;52.130;5.648;2022-09-09T16:07:09;19.60;99.90
22747;DHT22;11540;52.130;5.648;2022-09-09T16:09:35;19.60;99.90
22747;DHT22;11540;52.130;5.648;2022-09-09T16:12:00;19.60;99.90
22747;DHT22;11540;52.130;5.648;2022-09-09T16:14:26;19.40;99.90
22747;DHT22;11540;52.130;5.648;2022-09-09T16:16:52;19.30;99.90
22747;DHT22;11540;52.130;5.648;2022-09-09T16:19:18;19.20;99.90
22747;DHT22;11540;52.130;5.648;2022-09-09T16:21:45;19.10;99.90
22747;DHT22;11540;52.130;5.648;2022-09-09T16:24:13;19.10;99.90
22747;DHT22;11540;52.130;5.648;2022-09-09T16:26:40;19.10;99.90
22747;DHT22;11540;52.130;5.648;2022-09-09T16:29:07;19.00;99.90
22747;DHT22;11540;52.130;5.648;2022-09-09T16:31:33;19.00;99.90
22747;DHT22;11540;52.130;5.648;2022-09-09T16:33:59;18.90;99.90
22747;DHT22;11540;52.130;5.648;2022-09-09T16:36:25;18.90;99.90
22747;DHT22;11540;52.130;5.648;2022-09-09T16:38:56;18.70;99.90
22747;DHT22;11540;52.130;5.648;2022-09-09T16:41:22;18.60;99.90
22747;DHT22;11540;52.130;5.648;2022-09-09T16:43:51;18.50;99.90
22747;DHT22;11540;52.130;5.648;2022-09-09T16:46:18;18.40;99.90
22747;DHT22;11540;52.130;5.648;2022-09-09T16:48:45;18.30;99.90
22747;DHT22;11540;52.130;5.648;2022-09-09T16:51:14;18.30;99.90
22747;DHT22;11540;52.130;5.648;2022-09-09T16:53:40;18.20;99.90
22747;DHT22;11540;52.130;5.648;2022-09-09T16:56:19;18.10;99.90
22747;DHT22;11540;52.130;5.648;2022-09-09T16:58:55;18.10;99.90
22747;DHT22;11540;52.130;5.648;2022-09-09T17:01:22;18.10;99.90
22747;DHT22;11540;52.130;5.648;2022-09-09T17:03:51;18.10;99.90
22747;DHT22;11540;52.130;5.648;2022-09-09T17:06:17;18.10;99.90
22747;DHT22;11540;52.130;5.648;2022-09-09T17:08:42;18.20;99.90
22747;DHT22;11540;52.130;5.648;2022-09-09T17:11:14;18.10;99.90
22747;DHT22;11540;52.130;5.648;2022-09-09T17:13:40;18.10;99.90
22747;DHT22;11540;52.130;5.648;2022-09-09T17:16:06;18.10;99.90
22747;DHT22;11540;52.130;5.648;2022-09-09T17:18:31;18.10;99.90
22747;DHT22;11540;52.130;5.648;2022-09-09T17:21:01;18.00;99.90
22747;DHT22;11540;52.130;5.648;2022-09-09T17:23:27;18.00;99.90
22747;DHT22;11540;52.130;5.648;2022-09-09T17:25:57;17.90;99.90
22747;DHT22;11540;52.130;5.648;2022-09-09T17:28:23;17.80;99.90
22747;DHT22;11540;52.130;5.648;2022-09-09T17:30:52;17.80;99.90
22747;DHT22;11540;52.130;5.648;2022-09-09T17:33:18;17.80;99.90
22747;DHT22;11540;52.130;5.648;2022-09-09T17:35:45;17.80;99.90